createdAt,value
2023-01-12T00:04:55.004Z,96.43
2023-01-12T00:10:02.474Z,95.91
2023-01-12T00:15:11.903Z,95.13
2023-01-12T00:20:19.936Z,94.86
2023-01-12T00:25:27.721Z,94.99
2023-01-12T00:30:35.182Z,95.12
2023-01-12T00:35:42.630Z,95.09
2023-01-12T00:40:50.452Z,95.18
2023-01-12T00:45:58.227Z,94.81
2023-01-12T00:51:07.573Z,94.82
2023-01-12T00:56:18.970Z,94.51
2023-01-12T01:01:27.692Z,94.16
2023-01-12T01:06:35.311Z,93.82
2023-01-12T01:11:43.020Z,93.62
2023-01-12T01:16:51.150Z,93.37
2023-01-12T01:22:01.474Z,93.34
2023-01-12T01:27:09.796Z,93.27
2023-01-12T01:32:17.212Z,93.22
2023-01-12T01:37:25.752Z,93.32
2023-01-12T01:42:33.476Z,93.42
2023-01-12T01:47:46.257Z,93.36
2023-01-12T01:52:57.524Z,93.11
2023-01-12T01:58:10.495Z,93.23
2023-01-12T02:03:22.322Z,93.42
2023-01-12T02:08:36.439Z,93.54
2023-01-12T02:14:02.415Z,93.96
2023-01-12T02:19:29.533Z,93.83
2023-01-12T02:24:57.046Z,93.74
2023-01-12T02:30:40.095Z,93.28
2023-01-12T02:36:02.546Z,93.40
2023-01-12T02:41:43.326Z,93.18
2023-01-12T02:46:54.297Z,93.29
2023-01-12T02:52:07.086Z,93.39
2023-01-12T02:57:15.840Z,93.75
2023-01-12T03:02:26.333Z,93.51
2023-01-12T03:07:47.507Z,93.49
2023-01-12T03:12:58.612Z,93.31
2023-01-12T03:18:10.293Z,93.53
2023-01-12T03:23:23.438Z,93.43
2023-01-12T03:28:37.971Z,93.51
2023-01-12T03:33:46.966Z,93.64
2023-01-12T03:39:04.198Z,93.76
2023-01-12T03:44:20.802Z,93.84
2023-01-12T03:49:37.471Z,94.08
2023-01-12T03:54:48.009Z,94.04
2023-01-12T04:00:00.667Z,94.24
2023-01-12T04:05:11.093Z,94.04
2023-01-12T04:10:19.366Z,94.23
2023-01-12T04:15:28.058Z,94.32
2023-01-12T04:20:35.675Z,94.31
2023-01-12T04:25:43.435Z,94.14
2023-01-12T04:30:51.005Z,94.14
2023-01-12T04:35:59.743Z,94.01
2023-01-12T04:41:09.095Z,94.01
2023-01-12T04:46:17.864Z,94.03
2023-01-12T04:51:26.418Z,94.14
2023-01-12T04:56:34.335Z,94.03
2023-01-12T05:01:42.609Z,93.97
2023-01-12T05:06:50.127Z,93.94
2023-01-12T05:11:57.605Z,93.75
2023-01-12T05:17:05.633Z,93.36
2023-01-12T05:22:22.805Z,93.17
2023-01-12T05:27:31.308Z,93.26
2023-01-12T05:32:42.616Z,93.15
2023-01-12T05:37:50.787Z,93.17
2023-01-12T05:43:16.394Z,92.94
2023-01-12T05:48:24.255Z,92.98
2023-01-12T05:53:32.903Z,93.24
2023-01-12T06:04:38.378Z,93.25
2023-01-12T06:09:46.261Z,93.16
2023-01-12T06:14:54.366Z,93.50
2023-01-12T06:20:02.448Z,93.38
2023-01-12T06:25:12.545Z,93.55
2023-01-12T06:30:23.747Z,93.59
2023-01-12T06:35:34.000Z,93.72
2023-01-12T06:40:41.246Z,93.90
2023-01-12T06:45:48.928Z,94.03
2023-01-12T06:51:03.281Z,94.03
2023-01-12T06:56:11.050Z,94.01
2023-01-12T07:01:18.592Z,93.99
2023-01-12T07:09:27.877Z,93.92
2023-01-12T07:14:35.495Z,93.75
2023-01-12T07:19:43.873Z,93.71
2023-01-12T07:24:51.727Z,93.56
2023-01-12T07:29:59.851Z,93.29
2023-01-12T07:35:09.967Z,93.49
2023-01-12T07:40:19.775Z,93.70
2023-01-12T07:45:29.125Z,93.73
2023-01-12T07:50:37.427Z,93.81
2023-01-12T07:55:46.085Z,93.69
2023-01-12T08:00:53.692Z,93.27
2023-01-12T08:06:03.429Z,93.20
2023-01-12T08:11:12.333Z,93.21
2023-01-12T08:16:26.721Z,93.12
2023-01-12T08:21:45.421Z,93.11
2023-01-12T08:26:57.483Z,93.07
2023-01-12T08:37:17.776Z,92.24
2023-01-12T08:42:30.856Z,92.29
2023-01-12T08:47:42.661Z,92.00
2023-01-12T08:52:50.332Z,91.83
2023-01-12T08:57:59.509Z,91.81
2023-01-12T09:03:07.365Z,91.94
2023-01-12T09:08:16.280Z,91.67
2023-01-12T09:13:25.152Z,91.44
2023-01-12T09:18:33.074Z,91.14
2023-01-12T09:23:41.578Z,90.66
2023-01-12T09:28:49.212Z,90.50
2023-01-12T09:33:57.729Z,90.39
2023-01-12T09:39:06.045Z,90.16
2023-01-12T09:44:40.434Z,90.18
2023-01-12T09:50:01.327Z,90.25
2023-01-12T09:55:20.502Z,90.03
2023-01-12T10:00:29.531Z,89.67
2023-01-12T10:05:46.416Z,89.26
2023-01-12T10:11:06.439Z,88.91
2023-01-12T10:16:23.741Z,88.79
2023-01-12T10:21:33.831Z,88.42
2023-01-12T10:26:46.418Z,87.77
2023-01-12T10:31:53.782Z,87.23
2023-01-12T10:37:10.746Z,87.03
2023-01-12T10:42:40.065Z,86.34
2023-01-12T10:47:50.832Z,85.32
2023-01-12T10:53:04.083Z,83.15
2023-01-12T10:58:24.325Z,82.70
2023-01-12T11:03:38.453Z,81.38
2023-01-12T11:08:49.365Z,80.61
2023-01-12T11:14:00.468Z,78.96
2023-01-12T11:19:29.048Z,76.89
2023-01-12T11:24:43.639Z,76.85
2023-01-12T11:30:00.435Z,75.96
2023-01-12T11:35:29.652Z,76.13
2023-01-12T11:40:40.029Z,74.69
2023-01-12T11:45:55.197Z,72.40
2023-01-12T11:51:03.928Z,71.87
2023-01-12T11:56:25.960Z,70.04
2023-01-12T12:01:44.957Z,69.87
2023-01-12T12:07:05.359Z,69.82
2023-01-12T12:12:27.363Z,69.74
2023-01-12T12:17:44.265Z,69.64
2023-01-12T12:23:07.064Z,70.40
2023-01-12T12:28:30.717Z,71.14
2023-01-12T12:34:00.692Z,70.77
2023-01-12T12:39:29.205Z,69.99
2023-01-12T12:45:08.892Z,69.30
2023-01-12T12:50:22.487Z,70.30
2023-01-12T12:55:31.319Z,70.17
2023-01-12T13:00:42.996Z,70.07
2023-01-12T13:06:11.500Z,69.37
2023-01-12T13:11:19.259Z,70.17
2023-01-12T13:16:49.809Z,70.26
2023-01-12T13:22:19.679Z,70.30
2023-01-12T13:27:56.163Z,70.22
2023-01-12T13:33:16.861Z,69.95
2023-01-12T13:38:40.833Z,69.94
2023-01-12T13:43:55.211Z,70.25
2023-01-12T13:49:03.970Z,69.29
2023-01-12T13:54:16.115Z,70.23
2023-01-12T13:59:26.462Z,69.82
2023-01-12T14:04:58.023Z,69.72
2023-01-12T14:10:21.441Z,69.75
2023-01-12T14:15:56.517Z,69.86
2023-01-12T14:21:04.892Z,69.52
2023-01-12T14:26:23.089Z,69.77
2023-01-12T14:31:40.614Z,69.84
2023-01-12T14:36:48.924Z,70.01
2023-01-12T14:42:16.211Z,69.72
2023-01-12T14:47:33.785Z,70.14
2023-01-12T14:52:47.124Z,70.43
2023-01-12T14:57:57.257Z,69.90
2023-01-12T15:03:14.886Z,70.26
2023-01-12T15:08:26.979Z,70.44
2023-01-12T15:13:36.263Z,70.80
2023-01-12T15:19:02.732Z,71.11
2023-01-12T15:24:40.621Z,71.13
2023-01-12T15:29:46.657Z,71.13
2023-01-12T15:34:55.267Z,71.50
2023-01-12T15:47:31.278Z,72.27
2023-01-12T15:52:35.478Z,72.27
2023-01-12T15:57:39.749Z,73.23
2023-01-12T16:02:47.720Z,73.31
2023-01-12T16:07:52.484Z,73.97
2023-01-12T16:12:59.326Z,74.07
2023-01-12T16:18:03.433Z,74.44
2023-01-12T16:23:07.405Z,74.41
2023-01-12T16:28:11.420Z,75.02
2023-01-12T16:33:17.338Z,75.29
2023-01-12T16:38:21.936Z,75.65
2023-01-12T16:43:29.670Z,75.64
2023-01-12T16:48:34.846Z,75.57
2023-01-12T16:53:41.133Z,75.94
2023-01-12T16:58:48.000Z,76.06
2023-01-12T17:03:57.423Z,76.96
2023-01-12T17:09:02.611Z,76.74
2023-01-12T17:14:22.390Z,76.95
2023-01-12T17:19:29.743Z,77.20
2023-01-12T17:24:35.364Z,78.17
2023-01-12T17:29:39.892Z,78.64
2023-01-12T17:34:47.409Z,77.91
2023-01-12T17:39:52.562Z,77.82
2023-01-12T17:54:41.676Z,78.83
2023-01-12T17:59:50.226Z,78.87
2023-01-12T18:04:57.598Z,78.81
2023-01-12T18:10:05.169Z,80.00
2023-01-12T18:15:14.702Z,80.46
2023-01-12T18:20:22.475Z,80.51
2023-01-12T18:25:29.933Z,80.87
2023-01-12T18:30:37.615Z,81.44
2023-01-12T18:35:43.128Z,81.34
2023-01-12T18:41:10.605Z,80.61
2023-01-12T18:46:18.250Z,80.38
2023-01-12T18:51:43.293Z,80.15
2023-01-12T18:56:52.793Z,80.35
2023-01-12T19:02:00.101Z,80.66
2023-01-12T19:07:07.394Z,80.89
2023-01-12T19:12:13.213Z,80.87
2023-01-12T19:17:34.284Z,80.96
2023-01-12T19:22:59.269Z,81.52
2023-01-12T19:28:24.599Z,82.15
2023-01-12T19:33:31.623Z,81.99
2023-01-12T19:38:39.546Z,81.95
2023-01-12T19:43:49.578Z,82.03
2023-01-12T19:48:56.838Z,82.24
2023-01-12T19:54:04.089Z,82.60
2023-01-12T20:02:31.854Z,82.78
2023-01-12T20:07:39.503Z,82.57
2023-01-12T20:12:46.814Z,82.38
2023-01-12T20:17:56.784Z,82.74
2023-01-12T20:23:03.946Z,82.81
2023-01-12T20:28:09.712Z,82.81
2023-01-12T20:33:18.971Z,83.21
2023-01-12T20:38:26.710Z,83.50
2023-01-12T20:43:34.525Z,83.43
2023-01-12T20:48:42.925Z,83.72
2023-01-12T20:53:50.292Z,84.31
2023-01-12T20:58:58.202Z,84.51
2023-01-12T21:04:05.351Z,84.81
2023-01-12T21:09:12.850Z,84.92
2023-01-12T21:14:19.805Z,84.99
2023-01-12T21:19:27.221Z,84.75
2023-01-12T21:24:34.684Z,84.55
2023-01-12T21:29:41.839Z,84.42
2023-01-12T21:34:49.247Z,84.41
2023-01-12T21:39:56.717Z,84.38
2023-01-12T21:45:04.143Z,84.04
2023-01-12T21:50:13.553Z,83.97
2023-01-12T21:55:20.843Z,83.55
2023-01-12T22:00:26.573Z,83.47
2023-01-12T22:05:34.721Z,83.38
2023-01-12T22:10:42.261Z,83.11
2023-01-12T22:15:51.150Z,83.07
2023-01-12T22:21:03.920Z,83.00
2023-01-12T22:26:13.326Z,83.22
2023-01-12T22:31:23.018Z,82.93
2023-01-12T22:36:32.192Z,82.74
2023-01-12T22:41:42.162Z,82.76
2023-01-12T22:46:49.349Z,83.04
2023-01-12T22:51:55.879Z,83.37
2023-01-12T22:57:03.183Z,83.63
2023-01-12T23:02:24.419Z,83.80
2023-01-12T23:07:32.054Z,83.95
2023-01-12T23:12:39.235Z,83.97
2023-01-12T23:17:45.054Z,84.36
2023-01-12T23:22:53.645Z,84.76
2023-01-12T23:28:01.546Z,84.72
2023-01-12T23:33:09.310Z,84.83
2023-01-12T23:38:18.123Z,84.71
2023-01-12T23:43:25.969Z,85.12
2023-01-12T23:48:34.466Z,85.24
2023-01-12T23:53:42.048Z,85.53
2023-01-12T23:58:49.547Z,85.71
